sensor_id;sensor_type;location;lat;lon;timestamp;P1;durP1;ratioP1;P2;durP2;ratioP2
25231;SDS011;13176;51.140;6.290;2023-10-09T00:01:43;592.33;;;556.55;;
25231;SDS011;13176;51.140;6.290;2023-10-09T00:04:10;581.28;;;545.92;;
25231;SDS011;13176;51.140;6.290;2023-10-09T00:06:42;591.83;;;556.67;;
25231;SDS011;13176;51.140;6.290;2023-10-09T00:09:09;581.30;;;546.17;;
25231;SDS011;13176;51.140;6.290;2023-10-09T00:11:43;575.13;;;540.75;;
25231;SDS011;13176;51.140;6.290;2023-10-09T00:14:11;591.65;;;556.40;;
25231;SDS011;13176;51.140;6.290;2023-10-09T00:16:38;566.50;;;532.67;;
25231;SDS011;13176;51.140;6.290;2023-10-09T00:19:14;570.28;;;536.15;;
25231;SDS011;13176;51.140;6.290;2023-10-09T00:21:41;587.67;;;552.50;;
25231;SDS011;13176;51.140;6.290;2023-10-09T00:24:08;609.10;;;571.85;;
25231;SDS011;13176;51.140;6.290;2023-10-09T00:26:40;570.38;;;536.35;;
25231;SDS011;13176;51.140;6.290;2023-10-09T00:29:12;577.05;;;542.13;;
25231;SDS011;13176;51.140;6.290;2023-10-09T00:31:51;587.17;;;551.97;;
25231;SDS011;13176;51.140;6.290;2023-10-09T00:34:29;576.28;;;541.45;;
25231;SDS011;13176;51.140;6.290;2023-10-09T00:36:56;569.17;;;535.33;;
25231;SDS011;13176;51.140;6.290;2023-10-09T00:39:30;582.20;;;546.80;;
25231;SDS011;13176;51.140;6.290;2023-10-09T00:42:02;575.40;;;540.70;;
25231;SDS011;13176;51.140;6.290;2023-10-09T00:44:32;587.75;;;552.47;;
25231;SDS011;13176;51.140;6.290;2023-10-09T00:47:14;587.75;;;553.13;;
25231;SDS011;13176;51.140;6.290;2023-10-09T00:52:37;535.92;;;504.92;;
25231;SDS011;13176;51.140;6.290;2023-10-09T00:55:15;567.95;;;533.70;;
25231;SDS011;13176;51.140;6.290;2023-10-09T00:57:48;579.08;;;544.55;;
25231;SDS011;13176;51.140;6.290;2023-10-09T01:00:26;591.70;;;556.22;;
25231;SDS011;13176;51.140;6.290;2023-10-09T01:03:14;596.15;;;560.17;;
25231;SDS011;13176;51.140;6.290;2023-10-09T01:05:45;580.08;;;545.50;;
25231;SDS011;13176;51.140;6.290;2023-10-09T01:08:35;581.63;;;547.08;;
25231;SDS011;13176;51.140;6.290;2023-10-09T01:11:01;581.15;;;545.75;;
25231;SDS011;13176;51.140;6.290;2023-10-09T01:13:45;572.40;;;538.05;;
25231;SDS011;13176;51.140;6.290;2023-10-09T01:16:12;585.38;;;549.80;;
25231;SDS011;13176;51.140;6.290;2023-10-09T01:18:43;585.30;;;549.97;;
25231;SDS011;13176;51.140;6.290;2023-10-09T01:21:11;583.38;;;547.83;;
25231;SDS011;13176;51.140;6.290;2023-10-09T01:23:41;596.28;;;560.05;;
25231;SDS011;13176;51.140;6.290;2023-10-09T01:26:31;583.50;;;548.40;;
25231;SDS011;13176;51.140;6.290;2023-10-09T01:29:11;575.78;;;541.15;;
25231;SDS011;13176;51.140;6.290;2023-10-09T01:31:46;613.33;;;575.75;;
25231;SDS011;13176;51.140;6.290;2023-10-09T01:34:32;562.97;;;529.03;;
25231;SDS011;13176;51.140;6.290;2023-10-09T01:37:12;594.83;;;559.38;;
25231;SDS011;13176;51.140;6.290;2023-10-09T01:39:52;582.95;;;547.58;;
25231;SDS011;13176;51.140;6.290;2023-10-09T01:42:24;582.63;;;547.45;;
25231;SDS011;13176;51.140;6.290;2023-10-09T01:45:01;565.17;;;531.30;;
25231;SDS011;13176;51.140;6.290;2023-10-09T01:47:38;577.22;;;542.78;;
25231;SDS011;13176;51.140;6.290;2023-10-09T01:50:05;595.22;;;558.63;;
25231;SDS011;13176;51.140;6.290;2023-10-09T01:52:37;585.80;;;550.80;;
25231;SDS011;13176;51.140;6.290;2023-10-09T01:55:04;584.17;;;549.47;;
25231;SDS011;13176;51.140;6.290;2023-10-09T01:57:51;575.45;;;541.30;;
25231;SDS011;13176;51.140;6.290;2023-10-09T02:00:18;601.95;;;566.13;;
25231;SDS011;13176;51.140;6.290;2023-10-09T02:02:50;587.35;;;552.28;;
25231;SDS011;13176;51.140;6.290;2023-10-09T02:05:17;585.38;;;549.53;;
25231;SDS011;13176;51.140;6.290;2023-10-09T02:07:43;561.40;;;527.97;;
25231;SDS011;13176;51.140;6.290;2023-10-09T02:10:20;579.42;;;544.55;;
25231;SDS011;13176;51.140;6.290;2023-10-09T02:13:12;580.83;;;546.70;;
25231;SDS011;13176;51.140;6.290;2023-10-09T02:15:43;594.92;;;558.55;;
25231;SDS011;13176;51.140;6.290;2023-10-09T02:18:11;595.28;;;558.72;;
25231;SDS011;13176;51.140;6.290;2023-10-09T02:20:48;601.15;;;565.03;;
25231;SDS011;13176;51.140;6.290;2023-10-09T02:23:42;606.33;;;569.05;;
25231;SDS011;13176;51.140;6.290;2023-10-09T02:26:23;596.70;;;559.92;;
25231;SDS011;13176;51.140;6.290;2023-10-09T02:28:58;609.33;;;571.92;;
25231;SDS011;13176;51.140;6.290;2023-10-09T02:31:26;591.88;;;555.63;;
25231;SDS011;13176;51.140;6.290;2023-10-09T02:34:07;619.13;;;581.20;;
25231;SDS011;13176;51.140;6.290;2023-10-09T02:36:43;580.40;;;545.20;;
25231;SDS011;13176;51.140;6.290;2023-10-09T02:39:15;588.50;;;553.22;;
25231;SDS011;13176;51.140;6.290;2023-10-09T02:41:52;601.75;;;564.90;;
25231;SDS011;13176;51.140;6.290;2023-10-09T02:46:56;563.25;;;529.92;;
25231;SDS011;13176;51.140;6.290;2023-10-09T02:49:24;593.10;;;557.22;;
25231;SDS011;13176;51.140;6.290;2023-10-09T02:51:52;592.92;;;557.15;;
25231;SDS011;13176;51.140;6.290;2023-10-09T02:54:19;594.33;;;558.30;;
25231;SDS011;13176;51.140;6.290;2023-10-09T02:56:50;591.03;;;555.67;;
25231;SDS011;13176;51.140;6.290;2023-10-09T02:59:40;608.65;;;570.78;;
25231;SDS011;13176;51.140;6.290;2023-10-09T03:02:11;586.63;;;550.80;;
25231;SDS011;13176;51.140;6.290;2023-10-09T03:04:37;624.72;;;586.72;;
25231;SDS011;13176;51.140;6.290;2023-10-09T03:07:05;612.47;;;574.95;;
25231;SDS011;13176;51.140;6.290;2023-10-09T03:09:33;620.53;;;582.38;;
25231;SDS011;13176;51.140;6.290;2023-10-09T03:12:02;627.42;;;588.60;;
25231;SDS011;13176;51.140;6.290;2023-10-09T03:14:31;601.95;;;565.05;;
25231;SDS011;13176;51.140;6.290;2023-10-09T03:17:01;584.95;;;549.90;;
25231;SDS011;13176;51.140;6.290;2023-10-09T03:19:30;583.95;;;549.60;;
25231;SDS011;13176;51.140;6.290;2023-10-09T03:22:07;596.80;;;560.92;;
25231;SDS011;13176;51.140;6.290;2023-10-09T03:24:37;589.13;;;553.92;;
25231;SDS011;13176;51.140;6.290;2023-10-09T03:27:04;570.90;;;536.65;;
25231;SDS011;13176;51.140;6.290;2023-10-09T03:29:30;581.20;;;546.88;;
25231;SDS011;13176;51.140;6.290;2023-10-09T03:31:57;575.83;;;541.55;;
25231;SDS011;13176;51.140;6.290;2023-10-09T03:34:23;586.40;;;551.63;;
25231;SDS011;13176;51.140;6.290;2023-10-09T03:36:50;578.33;;;543.67;;
25231;SDS011;13176;51.140;6.290;2023-10-09T03:39:32;586.90;;;552.25;;
25231;SDS011;13176;51.140;6.290;2023-10-09T03:42:07;569.35;;;535.63;;
25231;SDS011;13176;51.140;6.290;2023-10-09T03:44:45;554.08;;;521.72;;
25231;SDS011;13176;51.140;6.290;2023-10-09T03:47:18;535.10;;;503.60;;
25231;SDS011;13176;51.140;6.290;2023-10-09T03:49:49;562.80;;;528.83;;
25231;SDS011;13176;51.140;6.290;2023-10-09T03:52:17;553.00;;;520.47;;
25231;SDS011;13176;51.140;6.290;2023-10-09T03:54:45;571.35;;;537.05;;
25231;SDS011;13176;51.140;6.290;2023-10-09T03:57:15;556.45;;;523.78;;
25231;SDS011;13176;51.140;6.290;2023-10-09T03:59:46;535.28;;;504.23;;
25231;SDS011;13176;51.140;6.290;2023-10-09T04:02:17;518.75;;;489.08;;
25231;SDS011;13176;51.140;6.290;2023-10-09T04:04:44;542.25;;;510.17;;
25231;SDS011;13176;51.140;6.290;2023-10-09T04:07:14;545.55;;;513.70;;
25231;SDS011;13176;51.140;6.290;2023-10-09T04:09:44;526.67;;;496.40;;
25231;SDS011;13176;51.140;6.290;2023-10-09T04:12:14;531.10;;;499.95;;
25231;SDS011;13176;51.140;6.290;2023-10-09T04:14:47;534.83;;;503.55;;
25231;SDS011;13176;51.140;6.290;2023-10-09T04:17:20;524.83;;;494.17;;
25231;SDS011;13176;51.140;6.290;2023-10-09T04:20:00;513.78;;;483.73;;
25231;SDS011;13176;51.140;6.290;2023-10-09T04:22:46;506.67;;;477.05;;
25231;SDS011;13176;51.140;6.290;2023-10-09T04:25:26;508.65;;;479.23;;
25231;SDS011;13176;51.140;6.290;2023-10-09T04:27:55;504.45;;;475.35;;
25231;SDS011;13176;51.140;6.290;2023-10-09T04:30:36;517.83;;;488.30;;
25231;SDS011;13176;51.140;6.290;2023-10-09T04:33:06;515.33;;;485.48;;
25231;SDS011;13176;51.140;6.290;2023-10-09T04:35:38;505.50;;;476.60;;
25231;SDS011;13176;51.140;6.290;2023-10-09T04:38:04;513.33;;;483.48;;
25231;SDS011;13176;51.140;6.290;2023-10-09T04:40:31;544.35;;;512.33;;
25231;SDS011;13176;51.140;6.290;2023-10-09T04:43:18;533.05;;;502.33;;
25231;SDS011;13176;51.140;6.290;2023-10-09T04:45:47;531.03;;;500.23;;
25231;SDS011;13176;51.140;6.290;2023-10-09T04:48:34;517.00;;;486.95;;
25231;SDS011;13176;51.140;6.290;2023-10-09T04:51:05;539.88;;;508.45;;
25231;SDS011;13176;51.140;6.290;2023-10-09T04:53:48;509.88;;;480.40;;
25231;SDS011;13176;51.140;6.290;2023-10-09T04:56:47;530.28;;;499.70;;
25231;SDS011;13176;51.140;6.290;2023-10-09T04:59:19;529.75;;;498.95;;
25231;SDS011;13176;51.140;6.290;2023-10-09T05:01:51;529.25;;;498.17;;
25231;SDS011;13176;51.140;6.290;2023-10-09T05:04:24;561.88;;;528.90;;
25231;SDS011;13176;51.140;6.290;2023-10-09T05:07:03;528.95;;;497.00;;
25231;SDS011;13176;51.140;6.290;2023-10-09T05:09:49;555.25;;;523.13;;
25231;SDS011;13176;51.140;6.290;2023-10-09T05:12:22;541.15;;;509.42;;
25231;SDS011;13176;51.140;6.290;2023-10-09T05:14:54;535.13;;;503.90;;
25231;SDS011;13176;51.140;6.290;2023-10-09T05:17:38;539.83;;;508.65;;
25231;SDS011;13176;51.140;6.290;2023-10-09T05:20:05;556.70;;;524.35;;
25231;SDS011;13176;51.140;6.290;2023-10-09T05:23:07;521.83;;;491.35;;
25231;SDS011;13176;51.140;6.290;2023-10-09T05:25:49;534.45;;;503.02;;
25231;SDS011;13176;51.140;6.290;2023-10-09T05:28:25;555.38;;;522.63;;
25231;SDS011;13176;51.140;6.290;2023-10-09T05:30:58;555.92;;;523.25;;
25231;SDS011;13176;51.140;6.290;2023-10-09T05:33:42;554.50;;;521.67;;
25231;SDS011;13176;51.140;6.290;2023-10-09T05:36:11;559.70;;;526.60;;
25231;SDS011;13176;51.140;6.290;2023-10-09T05:38:58;542.63;;;510.13;;
25231;SDS011;13176;51.140;6.290;2023-10-09T05:41:25;574.28;;;539.88;;
25231;SDS011;13176;51.140;6.290;2023-10-09T05:44:12;558.88;;;525.35;;
25231;SDS011;13176;51.140;6.290;2023-10-09T05:46:57;546.25;;;514.17;;
25231;SDS011;13176;51.140;6.290;2023-10-09T05:52:26;454.85;;;428.85;;
25231;SDS011;13176;51.140;6.290;2023-10-09T05:55:08;529.17;;;498.40;;
25231;SDS011;13176;51.140;6.290;2023-10-09T05:57:50;509.20;;;478.88;;
25231;SDS011;13176;51.140;6.290;2023-10-09T06:00:23;533.75;;;502.38;;
25231;SDS011;13176;51.140;6.290;2023-10-09T06:03:09;540.08;;;508.73;;
25231;SDS011;13176;51.140;6.290;2023-10-09T06:05:48;534.10;;;502.63;;
25231;SDS011;13176;51.140;6.290;2023-10-09T06:08:27;544.90;;;513.08;;
25231;SDS011;13176;51.140;6.290;2023-10-09T06:11:07;549.50;;;516.93;;
25231;SDS011;13176;51.140;6.290;2023-10-09T06:13:53;537.22;;;505.42;;
25231;SDS011;13176;51.140;6.290;2023-10-09T06:16:36;569.20;;;536.30;;
25231;SDS011;13176;51.140;6.290;2023-10-09T06:19:26;525.17;;;494.60;;
25231;SDS011;13176;51.140;6.290;2023-10-09T06:21:57;559.53;;;526.60;;
25231;SDS011;13176;51.140;6.290;2023-10-09T06:24:43;530.25;;;499.13;;
25231;SDS011;13176;51.140;6.290;2023-10-09T06:27:30;543.92;;;512.28;;
25231;SDS011;13176;51.140;6.290;2023-10-09T06:29:59;551.08;;;518.15;;
25231;SDS011;13176;51.140;6.290;2023-10-09T06:32:39;535.80;;;504.08;;
25231;SDS011;13176;51.140;6.290;2023-10-09T06:35:24;561.58;;;528.05;;
25231;SDS011;13176;51.140;6.290;2023-10-09T06:37:58;564.80;;;530.72;;
25231;SDS011;13176;51.140;6.290;2023-10-09T06:40:34;555.83;;;522.55;;
25231;SDS011;13176;51.140;6.290;2023-10-09T06:43:21;554.08;;;521.45;;
25231;SDS011;13176;51.140;6.290;2023-10-09T06:48:38;527.05;;;496.20;;
25231;SDS011;13176;51.140;6.290;2023-10-09T06:51:05;549.92;;;517.80;;
25231;SDS011;13176;51.140;6.290;2023-10-09T06:53:55;557.38;;;523.97;;
25231;SDS011;13176;51.140;6.290;2023-10-09T06:56:31;524.60;;;493.92;;
25231;SDS011;13176;51.140;6.290;2023-10-09T06:59:06;533.15;;;501.67;;
25231;SDS011;13176;51.140;6.290;2023-10-09T07:01:51;553.63;;;520.80;;
25231;SDS011;13176;51.140;6.290;2023-10-09T07:04:35;527.88;;;497.10;;
25231;SDS011;13176;51.140;6.290;2023-10-09T07:07:03;555.92;;;522.95;;
25231;SDS011;13176;51.140;6.290;2023-10-09T07:09:47;541.80;;;509.10;;
25231;SDS011;13176;51.140;6.290;2023-10-09T07:12:32;518.17;;;488.08;;
25231;SDS011;13176;51.140;6.290;2023-10-09T07:15:00;537.90;;;506.00;;
25231;SDS011;13176;51.140;6.290;2023-10-09T07:17:27;550.05;;;517.72;;
25231;SDS011;13176;51.140;6.290;2023-10-09T07:20:00;546.10;;;514.13;;
25231;SDS011;13176;51.140;6.290;2023-10-09T07:23:02;562.83;;;530.13;;
25231;SDS011;13176;51.140;6.290;2023-10-09T07:25:41;538.70;;;506.55;;
25231;SDS011;13176;51.140;6.290;2023-10-09T07:28:21;540.97;;;508.77;;
25231;SDS011;13176;51.140;6.290;2023-10-09T07:31:03;537.08;;;505.70;;
25231;SDS011;13176;51.140;6.290;2023-10-09T07:33:30;540.63;;;508.75;;
25231;SDS011;13176;51.140;6.290;2023-10-09T07:36:17;520.30;;;489.50;;
25231;SDS011;13176;51.140;6.290;2023-10-09T07:38:55;496.27;;;467.60;;
25231;SDS011;13176;51.140;6.290;2023-10-09T07:41:22;517.40;;;487.63;;
25231;SDS011;13176;51.140;6.290;2023-10-09T07:43:48;532.90;;;501.73;;
25231;SDS011;13176;51.140;6.290;2023-10-09T07:46:17;509.25;;;480.08;;
25231;SDS011;13176;51.140;6.290;2023-10-09T07:48:57;489.88;;;461.52;;
25231;SDS011;13176;51.140;6.290;2023-10-09T07:51:26;541.42;;;509.67;;
25231;SDS011;13176;51.140;6.290;2023-10-09T07:53:59;496.65;;;467.45;;
25231;SDS011;13176;51.140;6.290;2023-10-09T07:56:35;516.22;;;486.08;;
25231;SDS011;13176;51.140;6.290;2023-10-09T07:59:26;503.77;;;474.50;;
25231;SDS011;13176;51.140;6.290;2023-10-09T08:01:57;511.80;;;482.42;;
25231;SDS011;13176;51.140;6.290;2023-10-09T08:04:29;485.60;;;457.63;;
25231;SDS011;13176;51.140;6.290;2023-10-09T08:07:25;463.27;;;436.42;;
25231;SDS011;13176;51.140;6.290;2023-10-09T08:10:20;468.45;;;441.25;;
25231;SDS011;13176;51.140;6.290;2023-10-09T08:12:47;483.27;;;455.75;;
25231;SDS011;13176;51.140;6.290;2023-10-09T08:15:16;491.50;;;462.42;;
25231;SDS011;13176;51.140;6.290;2023-10-09T08:17:47;506.20;;;477.05;;
25231;SDS011;13176;51.140;6.290;2023-10-09T08:20:23;472.33;;;444.33;;
25231;SDS011;13176;51.140;6.290;2023-10-09T08:23:02;482.30;;;453.95;;
25231;SDS011;13176;51.140;6.290;2023-10-09T08:25:31;500.50;;;471.40;;
25231;SDS011;13176;51.140;6.290;2023-10-09T08:28:02;494.90;;;465.60;;
25231;SDS011;13176;51.140;6.290;2023-10-09T08:30:48;488.85;;;460.42;;
25231;SDS011;13176;51.140;6.290;2023-10-09T08:33:20;500.58;;;471.90;;
25231;SDS011;13176;51.140;6.290;2023-10-09T08:35:56;470.90;;;443.95;;
25231;SDS011;13176;51.140;6.290;2023-10-09T08:38:31;484.83;;;457.25;;
25231;SDS011;13176;51.140;6.290;2023-10-09T08:41:08;473.80;;;447.02;;
25231;SDS011;13176;51.140;6.290;2023-10-09T08:43:46;496.42;;;467.75;;
25231;SDS011;13176;51.140;6.290;2023-10-09T08:46:24;443.55;;;418.38;;
25231;SDS011;13176;51.140;6.290;2023-10-09T08:48:55;465.15;;;438.40;;
25231;SDS011;13176;51.140;6.290;2023-10-09T08:51:27;473.25;;;446.17;;
25231;SDS011;13176;51.140;6.290;2023-10-09T08:53:54;495.33;;;466.40;;
25231;SDS011;13176;51.140;6.290;2023-10-09T08:56:22;486.77;;;458.85;;
25231;SDS011;13176;51.140;6.290;2023-10-09T09:01:17;495.30;;;466.33;;
25231;SDS011;13176;51.140;6.290;2023-10-09T09:03:47;503.33;;;474.40;;
25231;SDS011;13176;51.140;6.290;2023-10-09T09:06:19;503.13;;;474.52;;
25231;SDS011;13176;51.140;6.290;2023-10-09T09:08:46;496.20;;;467.50;;
25231;SDS011;13176;51.140;6.290;2023-10-09T09:11:14;524.15;;;493.48;;
25231;SDS011;13176;51.140;6.290;2023-10-09T09:13:47;456.80;;;430.77;;
25231;SDS011;13176;51.140;6.290;2023-10-09T09:16:33;441.85;;;417.17;;
25231;SDS011;13176;51.140;6.290;2023-10-09T09:19:04;428.17;;;404.17;;
25231;SDS011;13176;51.140;6.290;2023-10-09T09:21:38;452.23;;;427.17;;
25231;SDS011;13176;51.140;6.290;2023-10-09T09:24:10;456.35;;;430.48;;
25231;SDS011;13176;51.140;6.290;2023-10-09T09:26:48;429.13;;;405.08;;
25231;SDS011;13176;51.140;6.290;2023-10-09T09:32:04;411.23;;;388.50;;
25231;SDS011;13176;51.140;6.290;2023-10-09T09:34:50;393.63;;;371.33;;
25231;SDS011;13176;51.140;6.290;2023-10-09T09:37:22;449.50;;;424.17;;
25231;SDS011;13176;51.140;6.290;2023-10-09T09:40:08;358.88;;;338.85;;
25231;SDS011;13176;51.140;6.290;2023-10-09T09:42:44;343.65;;;324.67;;
25231;SDS011;13176;51.140;6.290;2023-10-09T09:45:15;351.58;;;332.00;;
25231;SDS011;13176;51.140;6.290;2023-10-09T09:47:43;390.33;;;368.30;;
25231;SDS011;13176;51.140;6.290;2023-10-09T09:50:18;397.85;;;375.52;;
25231;SDS011;13176;51.140;6.290;2023-10-09T09:52:54;344.38;;;325.17;;
25231;SDS011;13176;51.140;6.290;2023-10-09T09:55:24;375.92;;;355.02;;
25231;SDS011;13176;51.140;6.290;2023-10-09T09:57:57;288.85;;;273.15;;
25231;SDS011;13176;51.140;6.290;2023-10-09T10:00:31;289.20;;;273.05;;
25231;SDS011;13176;51.140;6.290;2023-10-09T10:05:47;178.98;;;168.90;;
25231;SDS011;13176;51.140;6.290;2023-10-09T10:08:21;285.65;;;270.08;;
25231;SDS011;13176;51.140;6.290;2023-10-09T10:10:59;286.25;;;270.75;;
25231;SDS011;13176;51.140;6.290;2023-10-09T10:16:08;283.10;;;267.52;;
25231;SDS011;13176;51.140;6.290;2023-10-09T10:19:01;242.75;;;229.45;;
25231;SDS011;13176;51.140;6.290;2023-10-09T10:21:44;237.55;;;224.15;;
25231;SDS011;13176;51.140;6.290;2023-10-09T10:35:18;268.58;;;253.52;;
25231;SDS011;13176;51.140;6.290;2023-10-09T10:37:47;263.70;;;249.23;;
25231;SDS011;13176;51.140;6.290;2023-10-09T10:40:23;281.40;;;265.90;;
25231;SDS011;13176;51.140;6.290;2023-10-09T10:43:07;285.80;;;269.30;;
25231;SDS011;13176;51.140;6.290;2023-10-09T10:45:40;254.85;;;240.65;;
25231;SDS011;13176;51.140;6.290;2023-10-09T10:48:12;244.15;;;230.60;;
25231;SDS011;13176;51.140;6.290;2023-10-09T10:51:04;229.70;;;216.98;;
25231;SDS011;13176;51.140;6.290;2023-10-09T10:53:31;157.00;;;148.05;;
25231;SDS011;13176;51.140;6.290;2023-10-09T10:56:16;203.75;;;192.43;;
25231;SDS011;13176;51.140;6.290;2023-10-09T10:58:43;197.93;;;186.88;;
25231;SDS011;13176;51.140;6.290;2023-10-09T11:01:32;146.70;;;137.63;;
25231;SDS011;13176;51.140;6.290;2023-10-09T11:04:18;130.82;;;123.28;;
25231;SDS011;13176;51.140;6.290;2023-10-09T11:07:05;196.27;;;184.75;;
25231;SDS011;13176;51.140;6.290;2023-10-09T11:09:54;166.63;;;157.30;;
25231;SDS011;13176;51.140;6.290;2023-10-09T11:12:31;152.65;;;143.75;;
25231;SDS011;13176;51.140;6.290;2023-10-09T11:15:32;152.75;;;144.07;;
25231;SDS011;13176;51.140;6.290;2023-10-09T11:18:13;187.45;;;176.68;;
25231;SDS011;13176;51.140;6.290;2023-10-09T11:20:50;279.88;;;264.73;;
25231;SDS011;13176;51.140;6.290;2023-10-09T11:23:44;197.77;;;186.90;;
25231;SDS011;13176;51.140;6.290;2023-10-09T11:26:16;174.02;;;164.25;;
25231;SDS011;13176;51.140;6.290;2023-10-09T11:29:13;204.10;;;192.63;;
25231;SDS011;13176;51.140;6.290;2023-10-09T11:32:07;172.13;;;162.55;;
25231;SDS011;13176;51.140;6.290;2023-10-09T11:34:45;205.10;;;193.70;;
25231;SDS011;13176;51.140;6.290;2023-10-09T11:37:19;216.05;;;204.00;;
25231;SDS011;13176;51.140;6.290;2023-10-09T11:39:56;208.48;;;197.02;;
25231;SDS011;13176;51.140;6.290;2023-10-09T11:42:25;214.45;;;202.55;;
25231;SDS011;13176;51.140;6.290;2023-10-09T11:45:08;229.13;;;216.32;;
25231;SDS011;13176;51.140;6.290;2023-10-09T11:47:47;215.35;;;203.43;;
25231;SDS011;13176;51.140;6.290;2023-10-09T11:53:19;122.00;;;115.00;;
25231;SDS011;13176;51.140;6.290;2023-10-09T11:55:51;122.13;;;114.80;;
25231;SDS011;13176;51.140;6.290;2023-10-09T11:58:21;133.48;;;125.18;;
25231;SDS011;13176;51.140;6.290;2023-10-09T12:00:51;136.77;;;128.65;;
25231;SDS011;13176;51.140;6.290;2023-10-09T12:03:31;208.25;;;196.75;;
25231;SDS011;13176;51.140;6.290;2023-10-09T12:06:00;223.77;;;210.77;;
25231;SDS011;13176;51.140;6.290;2023-10-09T12:08:32;260.38;;;245.90;;
25231;SDS011;13176;51.140;6.290;2023-10-09T12:10:59;124.63;;;117.35;;
25231;SDS011;13176;51.140;6.290;2023-10-09T12:13:29;121.85;;;114.53;;
25231;SDS011;13176;51.140;6.290;2023-10-09T12:15:56;115.30;;;108.30;;
25231;SDS011;13176;51.140;6.290;2023-10-09T12:18:24;143.98;;;135.57;;
25231;SDS011;13176;51.140;6.290;2023-10-09T12:20:53;94.35;;;88.68;;
25231;SDS011;13176;51.140;6.290;2023-10-09T12:23:28;156.88;;;147.90;;
25231;SDS011;13176;51.140;6.290;2023-10-09T12:25:55;91.80;;;86.47;;
25231;SDS011;13176;51.140;6.290;2023-10-09T12:28:24;142.63;;;134.52;;
25231;SDS011;13176;51.140;6.290;2023-10-09T12:30:50;175.93;;;165.82;;
25231;SDS011;13176;51.140;6.290;2023-10-09T12:33:18;142.95;;;134.75;;
25231;SDS011;13176;51.140;6.290;2023-10-09T12:35:55;217.68;;;205.65;;
25231;SDS011;13176;51.140;6.290;2023-10-09T12:38:28;169.73;;;160.15;;
25231;SDS011;13176;51.140;6.290;2023-10-09T12:41:02;132.25;;;124.43;;
25231;SDS011;13176;51.140;6.290;2023-10-09T12:43:35;190.38;;;179.90;;
25231;SDS011;13176;51.140;6.290;2023-10-09T12:46:05;171.82;;;162.25;;
25231;SDS011;13176;51.140;6.290;2023-10-09T12:48:32;142.55;;;134.57;;
25231;SDS011;13176;51.140;6.290;2023-10-09T12:50:59;191.15;;;180.38;;
25231;SDS011;13176;51.140;6.290;2023-10-09T12:53:32;177.98;;;168.00;;
25231;SDS011;13176;51.140;6.290;2023-10-09T12:56:00;179.43;;;169.13;;
25231;SDS011;13176;51.140;6.290;2023-10-09T12:58:26;198.35;;;187.57;;
25231;SDS011;13176;51.140;6.290;2023-10-09T13:00:53;230.27;;;217.60;;
25231;SDS011;13176;51.140;6.290;2023-10-09T13:03:20;248.52;;;234.50;;
25231;SDS011;13176;51.140;6.290;2023-10-09T13:05:54;230.18;;;217.43;;
25231;SDS011;13176;51.140;6.290;2023-10-09T13:08:22;274.13;;;258.10;;
25231;SDS011;13176;51.140;6.290;2023-10-09T13:11:04;265.92;;;251.18;;
25231;SDS011;13176;51.140;6.290;2023-10-09T13:13:39;300.33;;;283.38;;
25231;SDS011;13176;51.140;6.290;2023-10-09T13:16:16;282.05;;;266.27;;
25231;SDS011;13176;51.140;6.290;2023-10-09T13:18:50;216.38;;;204.15;;
25231;SDS011;13176;51.140;6.290;2023-10-09T13:21:24;267.67;;;252.82;;
25231;SDS011;13176;51.140;6.290;2023-10-09T13:23:53;191.57;;;180.52;;
25231;SDS011;13176;51.140;6.290;2023-10-09T13:26:23;191.10;;;180.40;;
25231;SDS011;13176;51.140;6.290;2023-10-09T13:28:59;188.77;;;178.23;;
25231;SDS011;13176;51.140;6.290;2023-10-09T13:31:28;308.10;;;290.63;;
25231;SDS011;13176;51.140;6.290;2023-10-09T13:33:58;232.45;;;219.40;;
25231;SDS011;13176;51.140;6.290;2023-10-09T13:36:27;266.42;;;251.57;;
25231;SDS011;13176;51.140;6.290;2023-10-09T13:38:58;375.90;;;354.80;;
25231;SDS011;13176;51.140;6.290;2023-10-09T13:41:45;217.65;;;205.43;;
25231;SDS011;13176;51.140;6.290;2023-10-09T13:44:13;244.98;;;231.27;;
25231;SDS011;13176;51.140;6.290;2023-10-09T13:46:40;261.17;;;246.27;;
25231;SDS011;13176;51.140;6.290;2023-10-09T13:49:10;251.23;;;237.50;;
25231;SDS011;13176;51.140;6.290;2023-10-09T13:51:43;290.98;;;275.00;;
25231;SDS011;13176;51.140;6.290;2023-10-09T13:54:12;245.77;;;231.88;;
25231;SDS011;13176;51.140;6.290;2023-10-09T13:57:05;214.53;;;202.43;;
25231;SDS011;13176;51.140;6.290;2023-10-09T13:59:33;213.30;;;201.43;;
25231;SDS011;13176;51.140;6.290;2023-10-09T14:02:02;258.77;;;244.68;;
25231;SDS011;13176;51.140;6.290;2023-10-09T14:07:02;123.15;;;115.93;;
25231;SDS011;13176;51.140;6.290;2023-10-09T14:09:32;198.15;;;187.13;;
25231;SDS011;13176;51.140;6.290;2023-10-09T14:12:06;235.45;;;222.40;;
25231;SDS011;13176;51.140;6.290;2023-10-09T14:14:40;306.80;;;289.77;;
25231;SDS011;13176;51.140;6.290;2023-10-09T14:19:49;331.33;;;312.88;;
25231;SDS011;13176;51.140;6.290;2023-10-09T14:22:18;303.92;;;287.00;;
25231;SDS011;13176;51.140;6.290;2023-10-09T14:24:46;306.50;;;289.48;;
25231;SDS011;13176;51.140;6.290;2023-10-09T14:27:14;326.10;;;307.85;;
25231;SDS011;13176;51.140;6.290;2023-10-09T14:29:48;338.13;;;319.35;;
25231;SDS011;13176;51.140;6.290;2023-10-09T14:32:16;371.15;;;350.63;;
25231;SDS011;13176;51.140;6.290;2023-10-09T14:34:43;364.42;;;344.27;;
25231;SDS011;13176;51.140;6.290;2023-10-09T14:37:17;291.05;;;274.85;;
25231;SDS011;13176;51.140;6.290;2023-10-09T14:39:46;208.65;;;197.00;;
25231;SDS011;13176;51.140;6.290;2023-10-09T14:42:18;198.00;;;187.02;;
25231;SDS011;13176;51.140;6.290;2023-10-09T14:44:49;162.63;;;153.55;;
25231;SDS011;13176;51.140;6.290;2023-10-09T14:47:16;159.02;;;149.93;;
25231;SDS011;13176;51.140;6.290;2023-10-09T14:49:47;182.38;;;172.18;;
25231;SDS011;13176;51.140;6.290;2023-10-09T14:52:15;232.43;;;219.50;;
25231;SDS011;13176;51.140;6.290;2023-10-09T14:54:47;231.88;;;218.98;;
25231;SDS011;13176;51.140;6.290;2023-10-09T14:57:30;247.05;;;233.38;;
25231;SDS011;13176;51.140;6.290;2023-10-09T15:00:00;323.15;;;305.23;;
25231;SDS011;13176;51.140;6.290;2023-10-09T15:02:32;294.42;;;277.80;;
25231;SDS011;13176;51.140;6.290;2023-10-09T15:04:58;335.25;;;316.52;;
25231;SDS011;13176;51.140;6.290;2023-10-09T15:07:25;335.13;;;316.45;;
25231;SDS011;13176;51.140;6.290;2023-10-09T15:10:06;326.77;;;308.90;;
25231;SDS011;13176;51.140;6.290;2023-10-09T15:12:35;348.58;;;329.58;;
25231;SDS011;13176;51.140;6.290;2023-10-09T15:15:06;343.50;;;324.52;;
25231;SDS011;13176;51.140;6.290;2023-10-09T15:17:42;275.40;;;259.60;;
25231;SDS011;13176;51.140;6.290;2023-10-09T15:20:14;284.70;;;269.17;;